Buoy 63568

sailwx.info

Track history (hours):
 
Tides and Currents Weather Stations Pressure Air Temp Water Temp Dewpoint Dewpoint Depression Visibility Wind Speed Wind Dir Waves Ship Positions

Drifting buoy 63568

Last reported at 2018-Feb-22 13:00 UTC. Time now 2018-Feb-22 14:50 UTC.
Position N 72°08' E 011°11'.

Water temperature 4.5 ° C

Date/timePositionNaut miles runAvg speedWind from/ knotsBaromVisibWave heightAir tempDewpointWater temp
2018-Feb-22 13:00N 72°08' E 011°11'0 0.2 4.5
2018-Feb-22 12:00N 72°08' E 011°11'1 1.2 4.5
2018-Feb-22 11:00N 72°09' E 011°11'1 0.6 4.6
2018-Feb-22 10:00N 72°10' E 011°10'1 0.6 4.6
2018-Feb-22 09:00N 72°10' E 011°10'1 0.6 4.7
2018-Feb-22 07:00N 72°11' E 011°09'1 0.7 4.5
2018-Feb-22 06:00N 72°12' E 011°08'0 0.2 4.5
2018-Feb-22 05:00N 72°12' E 011°07'1 0.7 4.5
2018-Feb-22 04:00N 72°13' E 011°08'2 0.9 4.5
2018-Feb-22 02:00N 72°14' E 011°04'0 0.0 4.6
2018-Feb-22 01:00N 72°14' E 011°04'1 1.3 4.6
2018-Feb-22 00:00N 72°15' E 011°03'1 1.1 4.6
2018-Feb-21 23:00N 72°15' E 010°59'2 1.5 4.6
2018-Feb-21 22:00N 72°16' E 010°56'0 0.4 4.6
2018-Feb-21 21:00N 72°16' E 010°58'1 1.4 4.8
2018-Feb-21 20:00N 72°17' E 010°55'1 0.6 4.6
2018-Feb-21 19:00N 72°18' E 010°55'1 0.6 4.6
2018-Feb-21 18:00N 72°19' E 010°55'2 1.6 5.0
2018-Feb-21 17:00N 72°19' E 010°50'1 0.8 4.8
2018-Feb-21 16:00N 72°20' E 010°48'1 0.6 4.5
2018-Feb-21 15:00N 72°20' E 010°47'1 0.7 4.5
2018-Feb-21 14:00N 72°20' E 010°45'1 0.6 4.6
2018-Feb-21 13:00N 72°21' E 010°46'1 1.2 4.6
2018-Feb-21 12:00N 72°22' E 010°42'1 0.6 4.5
2018-Feb-21 11:00N 72°22' E 010°41'0 0.0 4.5
2018-Feb-21 10:00N 72°22' E 010°41'1 0.9 4.5
2018-Feb-21 09:00N 72°23' E 010°39'1 0.5 4.5
2018-Feb-21 07:00N 72°23' E 010°36'1 0.7 4.5
2018-Feb-21 06:00N 72°24' E 010°35'1 0.9 4.4
2018-Feb-21 05:00N 72°24' E 010°32'1 0.8 4.4
2018-Feb-21 04:00N 72°25' E 010°30'0 0.0 4.4
2018-Feb-21 03:00N 72°25' E 010°30'1 0.6 4.4
2018-Feb-21 02:00N 72°25' E 010°29'1 0.5 4.4
2018-Feb-21 01:00N 72°25' E 010°28'1 0.6 4.5
2018-Feb-21 00:00N 72°26' E 010°27'0 0.0 4.4
2018-Feb-20 23:00N 72°26' E 010°27'1 0.5 4.4
2018-Feb-20 22:00N 72°26' E 010°25'1 0.7 4.4
2018-Feb-20 21:00N 72°26' E 010°26'0 0.2 4.4
2018-Feb-20 20:00N 72°26' E 010°26'0 0.4 4.4
2018-Feb-20 19:00N 72°26' E 010°25'1 0.6 4.4
2018-Feb-20 18:00N 72°27' E 010°24'1 0.7 4.4
2018-Feb-20 17:00N 72°27' E 010°22'0 0.4 4.4
2018-Feb-20 16:00N 72°27' E 010°20'0 0.2 4.4
2018-Feb-20 15:00N 72°27' E 010°21'1 0.5 4.4
2018-Feb-20 14:00N 72°27' E 010°19'0 0.4 4.4
2018-Feb-20 13:00N 72°27' E 010°18'0 0.2 4.5
2018-Feb-20 12:00N 72°27' E 010°17'0 0.0 4.4
2018-Feb-20 11:00N 72°27' E 010°17'1 0.7 4.4
2018-Feb-20 10:00N 72°28' E 010°16'0 0.4 4.5
2018-Feb-20 09:00N 72°28' E 010°15'0 0.0 4.4
2018-Feb-20 08:00N 72°28' E 010°15'1 0.6 4.4
2018-Feb-20 07:00N 72°28' E 010°15'1 0.5 4.4
2018-Feb-20 06:00N 72°28' E 010°13'1 0.7 4.4
2018-Feb-20 05:00N 72°29' E 010°12'1 0.7 4.4
2018-Feb-20 04:00N 72°28' E 010°11'1 0.6 4.5
2018-Feb-20 03:00N 72°29' E 010°10'0 0.4 4.4
2018-Feb-20 02:00N 72°29' E 010°09'0 0.0 4.4
2018-Feb-20 01:00N 72°29' E 010°09'1 0.9 4.5
2018-Feb-20 00:00N 72°29' E 010°07'1 0.9 4.5
2018-Feb-19 23:00N 72°29' E 010°04'0 0.0 4.5
2018-Feb-19 22:00N 72°29' E 010°04'1 0.9 4.5
2018-Feb-19 21:00N 72°29' E 010°07'0 0.0 4.5
2018-Feb-19 20:00N 72°29' E 010°07'1 1.2 4.5
2018-Feb-19 19:00N 72°30' E 010°03'0 0.0 4.5
2018-Feb-19 18:00N 72°30' E 010°03'0 0.4 4.5
2018-Feb-19 17:00N 72°30' E 010°02'1 0.7 4.5
2018-Feb-19 16:00N 72°31' E 010°01'1 0.7 4.4
2018-Feb-19 15:00N 72°31' E 009°58'0 0.4 4.4
2018-Feb-19 14:00N 72°31' E 009°59'1 1.1 4.5
2018-Feb-19 13:00N 72°31' E 009°56'1 0.6 4.4
2018-Feb-19 12:00N 72°31' E 009°57'1 0.9 4.4
2018-Feb-19 11:00N 72°31' E 009°55'1 0.7 4.4
2018-Feb-19 10:00N 72°32' E 009°53'1 0.6 4.5
2018-Feb-19 09:00N 72°31' E 009°54'2 0.7 4.5
2018-Feb-19 06:00N 72°33' E 009°51'1 0.7 4.5
2018-Feb-19 05:00N 72°34' E 009°50'1 1.3 4.5
2018-Feb-19 04:00N 72°35' E 009°49'0 0.4 4.5
2018-Feb-19 03:00N 72°35' E 009°47'0 0.0 4.5
2018-Feb-19 02:00N 72°35' E 009°47'1 1.3 4.5
2018-Feb-19 01:00N 72°36' E 009°49'0 0.0 4.5
2018-Feb-19 00:00N 72°36' E 009°49'1 0.7 4.5
2018-Feb-18 23:00N 72°36' E 009°46'1 0.9 4.5
2018-Feb-18 22:00N 72°36' E 009°49'1 0.6 4.5
2018-Feb-18 21:00N 72°37' E 009°50'0 0.4 4.5
2018-Feb-18 20:00N 72°37' E 009°51'1 0.6 4.5
2018-Feb-18 19:00N 72°37' E 009°52'0 0.4 4.5
2018-Feb-18 18:00N 72°37' E 009°53'1 0.7 4.5
2018-Feb-18 17:00N 72°38' E 009°54'1 0.6 4.5
2018-Feb-18 16:00N 72°38' E 009°55'1 0.8 4.5
2018-Feb-18 15:00N 72°38' E 009°53'1 1.1 4.5
2018-Feb-18 14:00N 72°37' E 009°56'1 0.8 4.5
2018-Feb-18 13:00N 72°38' E 009°54'1 0.8 4.5
2018-Feb-18 12:00N 72°37' E 009°56'1 0.6 4.5
2018-Feb-18 11:00N 72°38' E 009°56'0 0.4 4.5
2018-Feb-18 10:00N 72°38' E 009°55'1 1.4 4.5
2018-Feb-18 09:00N 72°38' E 009°59'1 0.3 4.4
2018-Feb-18 07:00N 72°37' E 009°59'0 0.0 4.5
2018-Feb-18 06:00N 72°37' E 009°59'0 0.2 4.5
2018-Feb-18 05:00N 72°37' E 009°59'1 0.6 4.5
2018-Feb-18 03:00N 72°37' E 010°02'0 0.0 4.5
2018-Feb-18 02:00N 72°37' E 010°02'1 0.6 4.4
2018-Feb-18 01:00N 72°36' E 010°03'0 0.0 4.4
2018-Feb-18 00:00N 72°36' E 010°03'1 0.6 4.4
2018-Feb-17 23:00N 72°35' E 010°03'1 0.7 4.5
2018-Feb-17 22:00N 72°35' E 010°04'0 0.0 4.5
2018-Feb-17 21:00N 72°35' E 010°04'1 0.6 4.5
2018-Feb-17 19:00N 72°34' E 010°05'1 0.7 4.5
2018-Feb-17 18:00N 72°34' E 010°07'0 0.2 4.5
2018-Feb-17 17:00N 72°34' E 010°07'1 0.5 4.5
2018-Feb-17 16:00N 72°34' E 010°08'1 0.7 4.5
2018-Feb-17 15:00N 72°33' E 010°07'0 0.0 4.5
2018-Feb-17 14:00N 72°33' E 010°07'1 0.6 4.5
2018-Feb-17 13:00N 72°32' E 010°07'1 0.7 4.5
2018-Feb-17 12:00N 72°32' E 010°06'1 0.6 4.5
2018-Feb-17 11:00N 72°31' E 010°06'0 0.0 4.5
2018-Feb-17 10:00N 72°31' E 010°06'1 0.6 4.5
2018-Feb-17 09:00N 72°31' E 010°07'0 0.2 4.5
2018-Feb-17 08:00N 72°31' E 010°06'0 0.0 4.5
2018-Feb-17 07:00N 72°31' E 010°06'1 0.6 4.5
2018-Feb-17 06:00N 72°30' E 010°06'0 0.2 4.5
2018-Feb-17 05:00N 72°30' E 010°05'0 0.0 4.5
2018-Feb-17 04:00N 72°30' E 010°05'0 0.0 4.5
2018-Feb-17 03:00N 72°30' E 010°05'1 0.7 4.5
2018-Feb-17 02:00N 72°30' E 010°03'0 0.0 4.5
2018-Feb-17 01:00N 72°30' E 010°03'0 0.0 4.5
2018-Feb-17 00:00N 72°30' E 010°03'1 0.8 4.5
2018-Feb-16 23:00N 72°29' E 010°01'1 1.3 4.5
2018-Feb-16 22:00N 72°28' E 009°59'1 0.6 4.5
2018-Feb-16 21:00N 72°29' E 010°00'1 0.6 4.5
2018-Feb-16 20:00N 72°28' E 009°59'1 0.6 4.5
2018-Feb-16 19:00N 72°29' E 010°00'1 0.6 4.5
2018-Feb-16 18:00N 72°29' E 010°01'1 1.1 4.5
2018-Feb-16 17:00N 72°29' E 009°58'1 0.5 4.5
2018-Feb-16 16:00N 72°29' E 009°56'0 0.2 4.5
2018-Feb-16 15:00N 72°29' E 009°55'1 0.9 4.5
2018-Feb-16 14:00N 72°29' E 009°53'0 0.2 4.5
2018-Feb-16 13:00N 72°29' E 009°52'1 0.9 4.5
2018-Feb-16 12:00N 72°29' E 009°50'1 0.7 4.5
2018-Feb-16 11:00N 72°29' E 009°49'0 0.2 4.5
2018-Feb-16 10:00N 72°29' E 009°48'0 0.4 4.5
2018-Feb-16 09:00N 72°29' E 009°47'1 0.6 4.5
2018-Feb-16 08:00N 72°30' E 009°47'0 0.2 4.5
2018-Feb-16 07:00N 72°30' E 009°47'1 0.6 4.5
2018-Feb-16 06:00N 72°31' E 009°46'1 1.2 4.5
2018-Feb-16 05:00N 72°32' E 009°46'2 0.8 4.5
2018-Feb-16 03:00N 72°33' E 009°49'1 0.7 4.5
2018-Feb-16 02:00N 72°33' E 009°46'1 0.7 4.5
2018-Feb-16 01:00N 72°34' E 009°47'1 0.6 4.5
2018-Feb-16 00:00N 72°34' E 009°48'0 0.4 4.5
2018-Feb-15 23:00N 72°34' E 009°49'0 0.4 4.5
2018-Feb-15 22:00N 72°34' E 009°48'1 0.9 4.5
2018-Feb-15 21:00N 72°35' E 009°50'1 0.7 4.5
2018-Feb-15 20:00N 72°35' E 009°52'1 0.5 4.5
2018-Feb-15 19:00N 72°35' E 009°53'1 0.6 4.5
2018-Feb-15 18:00N 72°36' E 009°54'1 1.1 4.5
2018-Feb-15 17:00N 72°36' E 009°58'1 0.5 4.5
2018-Feb-15 16:00N 72°36' E 009°56'1 0.9 4.5
2018-Feb-15 15:00N 72°36' E 009°59'0 0.2 4.5
2018-Feb-15 14:00N 72°36' E 009°58'1 0.7 4.5
2018-Feb-15 12:00N 72°35' E 010°02'0 0.2 4.5
2018-Feb-15 11:00N 72°35' E 010°03'0 0.4 4.5
2018-Feb-15 10:00N 72°35' E 010°04'1 1.3 4.5
2018-Feb-15 09:00N 72°34' E 010°05'1 0.5 4.5
2018-Feb-15 08:00N 72°34' E 010°07'0 0.0 4.5
2018-Feb-15 07:00N 72°34' E 010°07'1 0.5 4.5
2018-Feb-15 05:00N 72°34' E 010°10'1 0.5 4.5
2018-Feb-15 03:00N 72°33' E 010°07'1 0.6 4.5
2018-Feb-15 02:00N 72°32' E 010°06'1 0.5 4.5
2018-Feb-15 01:00N 72°32' E 010°04'1 0.6 4.5
2018-Feb-15 00:00N 72°32' E 010°04'1 0.9 4.5
2018-Feb-14 23:00N 72°32' E 010°01'0 0.2 4.5
2018-Feb-14 22:00N 72°32' E 010°01'0 0.0 4.5
2018-Feb-14 21:00N 72°32' E 010°01'1 0.5 4.5
2018-Feb-14 20:00N 72°32' E 009°59'0 0.4 4.5
2018-Feb-14 19:00N 72°32' E 010°00'1 0.8 4.5
2018-Feb-14 18:00N 72°32' E 009°58'0 0.4 4.5
2018-Feb-14 17:00N 72°32' E 009°57'1 0.6 4.6
2018-Feb-14 16:00N 72°33' E 009°56'0 0.0 4.6
2018-Feb-14 15:00N 72°33' E 009°56'1 1.3 4.6
2018-Feb-14 14:00N 72°34' E 009°55'0 0.2 4.6
2018-Feb-14 13:00N 72°34' E 009°54'0 0.0 4.6
2018-Feb-14 12:00N 72°34' E 009°54'0 0.4 4.6
2018-Feb-14 11:00N 72°34' E 009°53'0 0.0 4.6
2018-Feb-14 10:00N 72°34' E 009°53'1 0.3 4.6
2018-Feb-14 08:00N 72°35' E 009°53'1 0.6 4.6
2018-Feb-14 07:00N 72°35' E 009°53'1 0.3 4.6
2018-Feb-14 05:00N 72°36' E 009°54'1 0.5 4.6
2018-Feb-14 04:00N 72°36' E 009°52'1 1.3 4.7
2018-Feb-14 03:00N 72°37' E 009°53'0 0.2 4.7
2018-Feb-14 02:00N 72°37' E 009°54'1 0.7 4.7
2018-Feb-14 01:00N 72°38' E 009°53'0 0.4 4.8
2018-Feb-14 00:00N 72°38' E 009°54'0 0.1 4.6
2018-Feb-13 22:00N 72°38' E 009°55'0 0.2 4.6
2018-Feb-13 21:00N 72°38' E 009°55'1 0.7 4.6
2018-Feb-13 20:00N 72°38' E 009°56'0 0.0 4.6
2018-Feb-13 19:00N 72°38' E 009°56'1 0.9 4.6
2018-Feb-13 18:00N 72°39' E 009°54'1 0.7 4.6
2018-Feb-13 17:00N 72°39' E 009°56'0 0.4 4.6
2018-Feb-13 16:00N 72°39' E 009°58'0 0.4 4.5
2018-Feb-13 15:00N 72°39' E 009°59'0 0.2 4.5
2018-Feb-13 14:00N 72°39' E 009°58'1 0.9 4.5
2018-Feb-13 13:00N 72°40' E 010°01'1 0.6 4.5
2018-Feb-13 12:00N 72°40' E 010°00'0 0.4 4.5
2018-Feb-13 11:00N 72°40' E 010°01'0 0.2 4.5
2018-Feb-13 10:00N 72°40' E 010°02'0 0.4 4.5
2018-Feb-13 09:00N 72°40' E 010°03'1 1.2 4.5
2018-Feb-13 08:00N 72°41' E 010°04'1 0.5 4.5
2018-Feb-13 07:00N 72°41' E 010°05'0 0.2 4.5
2018-Feb-13 06:00N 72°41' E 010°06'2 0.8 4.5
2018-Feb-13 04:00N 72°43' E 010°10'1 0.5 4.5
2018-Feb-13 02:00N 72°43' E 010°12'0 0.0 4.5
2018-Feb-13 01:00N 72°43' E 010°12'1 0.8 4.5
2018-Feb-13 00:00N 72°44' E 010°14'0 0.4 4.5
2018-Feb-12 23:00N 72°44' E 010°15'0 0.2 4.5
2018-Feb-12 22:00N 72°44' E 010°16'1 0.6 4.5
2018-Feb-12 21:00N 72°43' E 010°16'1 1.3 4.5
2018-Feb-12 20:00N 72°44' E 010°17'1 1.1 4.5
2018-Feb-12 19:00N 72°44' E 010°21'0 0.0 4.5
2018-Feb-12 18:00N 72°44' E 010°21'1 0.5 4.5
2018-Feb-12 17:00N 72°44' E 010°23'0 0.0 4.5
2018-Feb-12 16:00N 72°44' E 010°23'0 0.2 4.5
2018-Feb-12 15:00N 72°44' E 010°22'0 0.4 4.5
2018-Feb-12 14:00N 72°44' E 010°23'0 0.4 4.5
2018-Feb-12 13:00N 72°44' E 010°25'   4.5
Track history (hours):
 
Tides and Currents Weather Stations Pressure Air Temp Water Temp Dewpoint Dewpoint Depression Visibility Wind Speed Wind Dir Waves Ship Positions

Drifting buoy 63568

Last reported at 2018-Feb-22 13:00 UTC. Time now 2018-Feb-22 14:50 UTC.
Position N 72°08' E 011°11'.

Water temperature 4.5 ° C

Date/timePositionNaut miles runAvg speedWind from/ knotsBaromVisibWave heightAir tempDewpointWater temp
2018-Feb-22 13:00N 72°08' E 011°11'0 0.2 4.5
2018-Feb-22 12:00N 72°08' E 011°11'1 1.2 4.5
2018-Feb-22 11:00N 72°09' E 011°11'1 0.6 4.6
2018-Feb-22 10:00N 72°10' E 011°10'1 0.6 4.6
2018-Feb-22 09:00N 72°10' E 011°10'1 0.6 4.7
2018-Feb-22 07:00N 72°11' E 011°09'1 0.7 4.5
2018-Feb-22 06:00N 72°12' E 011°08'0 0.2 4.5
2018-Feb-22 05:00N 72°12' E 011°07'1 0.7 4.5
2018-Feb-22 04:00N 72°13' E 011°08'2 0.9 4.5
2018-Feb-22 02:00N 72°14' E 011°04'0 0.0 4.6
2018-Feb-22 01:00N 72°14' E 011°04'1 1.3 4.6
2018-Feb-22 00:00N 72°15' E 011°03'1 1.1 4.6
2018-Feb-21 23:00N 72°15' E 010°59'2 1.5 4.6
2018-Feb-21 22:00N 72°16' E 010°56'0 0.4 4.6
2018-Feb-21 21:00N 72°16' E 010°58'1 1.4 4.8
2018-Feb-21 20:00N 72°17' E 010°55'1 0.6 4.6
2018-Feb-21 19:00N 72°18' E 010°55'1 0.6 4.6
2018-Feb-21 18:00N 72°19' E 010°55'2 1.6 5.0
2018-Feb-21 17:00N 72°19' E 010°50'1 0.8 4.8
2018-Feb-21 16:00N 72°20' E 010°48'1 0.6 4.5
2018-Feb-21 15:00N 72°20' E 010°47'1 0.7 4.5
2018-Feb-21 14:00N 72°20' E 010°45'1 0.6 4.6
2018-Feb-21 13:00N 72°21' E 010°46'1 1.2 4.6
2018-Feb-21 12:00N 72°22' E 010°42'1 0.6 4.5
2018-Feb-21 11:00N 72°22' E 010°41'0 0.0 4.5
2018-Feb-21 10:00N 72°22' E 010°41'1 0.9 4.5
2018-Feb-21 09:00N 72°23' E 010°39'1 0.5 4.5
2018-Feb-21 07:00N 72°23' E 010°36'1 0.7 4.5
2018-Feb-21 06:00N 72°24' E 010°35'1 0.9 4.4
2018-Feb-21 05:00N 72°24' E 010°32'1 0.8 4.4
2018-Feb-21 04:00N 72°25' E 010°30'0 0.0 4.4
2018-Feb-21 03:00N 72°25' E 010°30'1 0.6 4.4
2018-Feb-21 02:00N 72°25' E 010°29'1 0.5 4.4
2018-Feb-21 01:00N 72°25' E 010°28'1 0.6 4.5
2018-Feb-21 00:00N 72°26' E 010°27'0 0.0 4.4
2018-Feb-20 23:00N 72°26' E 010°27'1 0.5 4.4
2018-Feb-20 22:00N 72°26' E 010°25'1 0.7 4.4
2018-Feb-20 21:00N 72°26' E 010°26'0 0.2 4.4
2018-Feb-20 20:00N 72°26' E 010°26'0 0.4 4.4
2018-Feb-20 19:00N 72°26' E 010°25'1 0.6 4.4
2018-Feb-20 18:00N 72°27' E 010°24'1 0.7 4.4
2018-Feb-20 17:00N 72°27' E 010°22'0 0.4 4.4
2018-Feb-20 16:00N 72°27' E 010°20'0 0.2 4.4
2018-Feb-20 15:00N 72°27' E 010°21'1 0.5 4.4
2018-Feb-20 14:00N 72°27' E 010°19'0 0.4 4.4
2018-Feb-20 13:00N 72°27' E 010°18'0 0.2 4.5
2018-Feb-20 12:00N 72°27' E 010°17'0 0.0 4.4
2018-Feb-20 11:00N 72°27' E 010°17'1 0.7 4.4
2018-Feb-20 10:00N 72°28' E 010°16'0 0.4 4.5
2018-Feb-20 09:00N 72°28' E 010°15'0 0.0 4.4
2018-Feb-20 08:00N 72°28' E 010°15'1 0.6 4.4
2018-Feb-20 07:00N 72°28' E 010°15'1 0.5 4.4
2018-Feb-20 06:00N 72°28' E 010°13'1 0.7 4.4
2018-Feb-20 05:00N 72°29' E 010°12'1 0.7 4.4
2018-Feb-20 04:00N 72°28' E 010°11'1 0.6 4.5
2018-Feb-20 03:00N 72°29' E 010°10'0 0.4 4.4
2018-Feb-20 02:00N 72°29' E 010°09'0 0.0 4.4
2018-Feb-20 01:00N 72°29' E 010°09'1 0.9 4.5
2018-Feb-20 00:00N 72°29' E 010°07'1 0.9 4.5
2018-Feb-19 23:00N 72°29' E 010°04'0 0.0 4.5
2018-Feb-19 22:00N 72°29' E 010°04'1 0.9 4.5
2018-Feb-19 21:00N 72°29' E 010°07'0 0.0 4.5
2018-Feb-19 20:00N 72°29' E 010°07'1 1.2 4.5
2018-Feb-19 19:00N 72°30' E 010°03'0 0.0 4.5
2018-Feb-19 18:00N 72°30' E 010°03'0 0.4 4.5
2018-Feb-19 17:00N 72°30' E 010°02'1 0.7 4.5
2018-Feb-19 16:00N 72°31' E 010°01'1 0.7 4.4
2018-Feb-19 15:00N 72°31' E 009°58'0 0.4 4.4
2018-Feb-19 14:00N 72°31' E 009°59'1 1.1 4.5
2018-Feb-19 13:00N 72°31' E 009°56'1 0.6 4.4
2018-Feb-19 12:00N 72°31' E 009°57'1 0.9 4.4
2018-Feb-19 11:00N 72°31' E 009°55'1 0.7 4.4
2018-Feb-19 10:00N 72°32' E 009°53'1 0.6 4.5
2018-Feb-19 09:00N 72°31' E 009°54'2 0.7 4.5
2018-Feb-19 06:00N 72°33' E 009°51'1 0.7 4.5
2018-Feb-19 05:00N 72°34' E 009°50'1 1.3 4.5
2018-Feb-19 04:00N 72°35' E 009°49'0 0.4 4.5
2018-Feb-19 03:00N 72°35' E 009°47'0 0.0 4.5
2018-Feb-19 02:00N 72°35' E 009°47'1 1.3 4.5
2018-Feb-19 01:00N 72°36' E 009°49'0 0.0 4.5
2018-Feb-19 00:00N 72°36' E 009°49'1 0.7 4.5
2018-Feb-18 23:00N 72°36' E 009°46'1 0.9 4.5
2018-Feb-18 22:00N 72°36' E 009°49'1 0.6 4.5
2018-Feb-18 21:00N 72°37' E 009°50'0 0.4 4.5
2018-Feb-18 20:00N 72°37' E 009°51'1 0.6 4.5
2018-Feb-18 19:00N 72°37' E 009°52'0 0.4 4.5
2018-Feb-18 18:00N 72°37' E 009°53'1 0.7 4.5
2018-Feb-18 17:00N 72°38' E 009°54'1 0.6 4.5
2018-Feb-18 16:00N 72°38' E 009°55'1 0.8 4.5
2018-Feb-18 15:00N 72°38' E 009°53'1 1.1 4.5
2018-Feb-18 14:00N 72°37' E 009°56'1 0.8 4.5
2018-Feb-18 13:00N 72°38' E 009°54'1 0.8 4.5
2018-Feb-18 12:00N 72°37' E 009°56'1 0.6 4.5
2018-Feb-18 11:00N 72°38' E 009°56'0 0.4 4.5
2018-Feb-18 10:00N 72°38' E 009°55'1 1.4 4.5
2018-Feb-18 09:00N 72°38' E 009°59'1 0.3 4.4
2018-Feb-18 07:00N 72°37' E 009°59'0 0.0 4.5
2018-Feb-18 06:00N 72°37' E 009°59'0 0.2 4.5
2018-Feb-18 05:00N 72°37' E 009°59'1 0.6 4.5
2018-Feb-18 03:00N 72°37' E 010°02'0 0.0 4.5
2018-Feb-18 02:00N 72°37' E 010°02'1 0.6 4.4
2018-Feb-18 01:00N 72°36' E 010°03'0 0.0 4.4
2018-Feb-18 00:00N 72°36' E 010°03'1 0.6 4.4
2018-Feb-17 23:00N 72°35' E 010°03'1 0.7 4.5
2018-Feb-17 22:00N 72°35' E 010°04'0 0.0 4.5
2018-Feb-17 21:00N 72°35' E 010°04'1 0.6 4.5
2018-Feb-17 19:00N 72°34' E 010°05'1 0.7 4.5
2018-Feb-17 18:00N 72°34' E 010°07'0 0.2 4.5
2018-Feb-17 17:00N 72°34' E 010°07'1 0.5 4.5
2018-Feb-17 16:00N 72°34' E 010°08'1 0.7 4.5
2018-Feb-17 15:00N 72°33' E 010°07'0 0.0 4.5
2018-Feb-17 14:00N 72°33' E 010°07'1 0.6 4.5
2018-Feb-17 13:00N 72°32' E 010°07'1 0.7 4.5
2018-Feb-17 12:00N 72°32' E 010°06'1 0.6 4.5
2018-Feb-17 11:00N 72°31' E 010°06'0 0.0 4.5
2018-Feb-17 10:00N 72°31' E 010°06'1 0.6 4.5
2018-Feb-17 09:00N 72°31' E 010°07'0 0.2 4.5
2018-Feb-17 08:00N 72°31' E 010°06'0 0.0 4.5
2018-Feb-17 07:00N 72°31' E 010°06'1 0.6 4.5
2018-Feb-17 06:00N 72°30' E 010°06'0 0.2 4.5
2018-Feb-17 05:00N 72°30' E 010°05'0 0.0 4.5
2018-Feb-17 04:00N 72°30' E 010°05'0 0.0 4.5
2018-Feb-17 03:00N 72°30' E 010°05'1 0.7 4.5
2018-Feb-17 02:00N 72°30' E 010°03'0 0.0 4.5
2018-Feb-17 01:00N 72°30' E 010°03'0 0.0 4.5
2018-Feb-17 00:00N 72°30' E 010°03'1 0.8 4.5
2018-Feb-16 23:00N 72°29' E 010°01'1 1.3 4.5
2018-Feb-16 22:00N 72°28' E 009°59'1 0.6 4.5
2018-Feb-16 21:00N 72°29' E 010°00'1 0.6 4.5
2018-Feb-16 20:00N 72°28' E 009°59'1 0.6 4.5
2018-Feb-16 19:00N 72°29' E 010°00'1 0.6 4.5
2018-Feb-16 18:00N 72°29' E 010°01'1 1.1 4.5
2018-Feb-16 17:00N 72°29' E 009°58'1 0.5 4.5
2018-Feb-16 16:00N 72°29' E 009°56'0 0.2 4.5
2018-Feb-16 15:00N 72°29' E 009°55'1 0.9 4.5
2018-Feb-16 14:00N 72°29' E 009°53'0 0.2 4.5
2018-Feb-16 13:00N 72°29' E 009°52'1 0.9 4.5
2018-Feb-16 12:00N 72°29' E 009°50'1 0.7 4.5
2018-Feb-16 11:00N 72°29' E 009°49'0 0.2 4.5
2018-Feb-16 10:00N 72°29' E 009°48'0 0.4 4.5
2018-Feb-16 09:00N 72°29' E 009°47'1 0.6 4.5
2018-Feb-16 08:00N 72°30' E 009°47'0 0.2 4.5
2018-Feb-16 07:00N 72°30' E 009°47'1 0.6 4.5
2018-Feb-16 06:00N 72°31' E 009°46'1 1.2 4.5
2018-Feb-16 05:00N 72°32' E 009°46'2 0.8 4.5
2018-Feb-16 03:00N 72°33' E 009°49'1 0.7 4.5
2018-Feb-16 02:00N 72°33' E 009°46'1 0.7 4.5
2018-Feb-16 01:00N 72°34' E 009°47'1 0.6 4.5
2018-Feb-16 00:00N 72°34' E 009°48'0 0.4 4.5
2018-Feb-15 23:00N 72°34' E 009°49'0 0.4 4.5
2018-Feb-15 22:00N 72°34' E 009°48'1 0.9 4.5
2018-Feb-15 21:00N 72°35' E 009°50'1 0.7 4.5
2018-Feb-15 20:00N 72°35' E 009°52'1 0.5 4.5
2018-Feb-15 19:00N 72°35' E 009°53'1 0.6 4.5
2018-Feb-15 18:00N 72°36' E 009°54'1 1.1 4.5
2018-Feb-15 17:00N 72°36' E 009°58'1 0.5 4.5
2018-Feb-15 16:00N 72°36' E 009°56'1 0.9 4.5
2018-Feb-15 15:00N 72°36' E 009°59'0 0.2 4.5
2018-Feb-15 14:00N 72°36' E 009°58'1 0.7 4.5
2018-Feb-15 12:00N 72°35' E 010°02'0 0.2 4.5
2018-Feb-15 11:00N 72°35' E 010°03'0 0.4 4.5
2018-Feb-15 10:00N 72°35' E 010°04'1 1.3 4.5
2018-Feb-15 09:00N 72°34' E 010°05'1 0.5 4.5
2018-Feb-15 08:00N 72°34' E 010°07'0 0.0 4.5
2018-Feb-15 07:00N 72°34' E 010°07'1 0.5 4.5
2018-Feb-15 05:00N 72°34' E 010°10'1 0.5 4.5
2018-Feb-15 03:00N 72°33' E 010°07'1 0.6 4.5
2018-Feb-15 02:00N 72°32' E 010°06'1 0.5 4.5
2018-Feb-15 01:00N 72°32' E 010°04'1 0.6 4.5
2018-Feb-15 00:00N 72°32' E 010°04'1 0.9 4.5
2018-Feb-14 23:00N 72°32' E 010°01'0 0.2 4.5
2018-Feb-14 22:00N 72°32' E 010°01'0 0.0 4.5
2018-Feb-14 21:00N 72°32' E 010°01'1 0.5 4.5
2018-Feb-14 20:00N 72°32' E 009°59'0 0.4 4.5
2018-Feb-14 19:00N 72°32' E 010°00'1 0.8 4.5
2018-Feb-14 18:00N 72°32' E 009°58'0 0.4 4.5
2018-Feb-14 17:00N 72°32' E 009°57'1 0.6 4.6
2018-Feb-14 16:00N 72°33' E 009°56'0 0.0 4.6
2018-Feb-14 15:00N 72°33' E 009°56'1 1.3 4.6
2018-Feb-14 14:00N 72°34' E 009°55'0 0.2 4.6
2018-Feb-14 13:00N 72°34' E 009°54'0 0.0 4.6
2018-Feb-14 12:00N 72°34' E 009°54'0 0.4 4.6
2018-Feb-14 11:00N 72°34' E 009°53'0 0.0 4.6
2018-Feb-14 10:00N 72°34' E 009°53'1 0.3 4.6
2018-Feb-14 08:00N 72°35' E 009°53'1 0.6 4.6
2018-Feb-14 07:00N 72°35' E 009°53'1 0.3 4.6
2018-Feb-14 05:00N 72°36' E 009°54'1 0.5 4.6
2018-Feb-14 04:00N 72°36' E 009°52'1 1.3 4.7
2018-Feb-14 03:00N 72°37' E 009°53'0 0.2 4.7
2018-Feb-14 02:00N 72°37' E 009°54'1 0.7 4.7
2018-Feb-14 01:00N 72°38' E 009°53'0 0.4 4.8
2018-Feb-14 00:00N 72°38' E 009°54'0 0.1 4.6
2018-Feb-13 22:00N 72°38' E 009°55'0 0.2 4.6
2018-Feb-13 21:00N 72°38' E 009°55'1 0.7 4.6
2018-Feb-13 20:00N 72°38' E 009°56'0 0.0 4.6
2018-Feb-13 19:00N 72°38' E 009°56'1 0.9 4.6
2018-Feb-13 18:00N 72°39' E 009°54'1 0.7 4.6
2018-Feb-13 17:00N 72°39' E 009°56'0 0.4 4.6
2018-Feb-13 16:00N 72°39' E 009°58'0 0.4 4.5
2018-Feb-13 15:00N 72°39' E 009°59'0 0.2 4.5
2018-Feb-13 14:00N 72°39' E 009°58'1 0.9 4.5
2018-Feb-13 13:00N 72°40' E 010°01'1 0.6 4.5
2018-Feb-13 12:00N 72°40' E 010°00'0 0.4 4.5
2018-Feb-13 11:00N 72°40' E 010°01'0 0.2 4.5
2018-Feb-13 10:00N 72°40' E 010°02'0 0.4 4.5
2018-Feb-13 09:00N 72°40' E 010°03'1 1.2 4.5
2018-Feb-13 08:00N 72°41' E 010°04'1 0.5 4.5
2018-Feb-13 07:00N 72°41' E 010°05'0 0.2 4.5
2018-Feb-13 06:00N 72°41' E 010°06'2 0.8 4.5
2018-Feb-13 04:00N 72°43' E 010°10'1 0.5 4.5
2018-Feb-13 02:00N 72°43' E 010°12'0 0.0 4.5
2018-Feb-13 01:00N 72°43' E 010°12'1 0.8 4.5
2018-Feb-13 00:00N 72°44' E 010°14'0 0.4 4.5
2018-Feb-12 23:00N 72°44' E 010°15'0 0.2 4.5
2018-Feb-12 22:00N 72°44' E 010°16'1 0.6 4.5
2018-Feb-12 21:00N 72°43' E 010°16'1 1.3 4.5
2018-Feb-12 20:00N 72°44' E 010°17'1 1.1 4.5
2018-Feb-12 19:00N 72°44' E 010°21'0 0.0 4.5
2018-Feb-12 18:00N 72°44' E 010°21'1 0.5 4.5
2018-Feb-12 17:00N 72°44' E 010°23'0 0.0 4.5
2018-Feb-12 16:00N 72°44' E 010°23'0 0.2 4.5
2018-Feb-12 15:00N 72°44' E 010°22'0 0.4 4.5
2018-Feb-12 14:00N 72°44' E 010°23'0 0.4 4.5
2018-Feb-12 13:00N 72°44' E 010°25'   4.5

Dump ship's entire track history